Time;durP1;ratioP1;P1;durP2;ratioP2;P2;SDS_P1;SDS_P2;PMS_P1;PMS_P2;Temp;Humidity;BMP_temperature;BMP_pressure;BME280_temperature;BME280_humidity;BME280_pressure;Samples;Min_cycle;Max_cycle;Signal;HPM_P1;HPM_P2
2021/09/30 04:36:03;;;;;;;;;35.00;30.25;;;;;20.05;59.96;99464.69;6061642;28;98650;-61
2021/09/30 04:39:07;;;;;;;;;36.60;30.60;;;;;20.11;59.71;99469.09;6054465;28;97724;-62
2021/09/30 04:42:12;;;;;;;;;36.40;32.00;;;;;20.16;59.24;99460.91;6052273;28;97418;-62
2021/09/30 04:45:16;;;;;;;;;35.50;32.00;;;;;20.19;59.04;99469.38;6051588;28;96699;-64
2021/09/30 04:48:25;;;;;;;;;37.00;32.00;;;;;20.16;59.09;99474.59;6065897;28;97298;-62
2021/09/30 04:51:41;;;;;;;;;33.20;30.00;;;;;20.16;59.22;99486.38;6085571;28;97361;-61
2021/09/30 04:54:44;;;;;;;;;33.00;30.60;;;;;20.14;59.27;99482.22;6050895;28;97737;-63
2021/09/30 04:57:48;;;;;;;;;39.00;32.40;;;;;20.14;59.14;99485.78;6049270;28;96946;-65
2021/09/30 05:00:52;;;;;;;;;35.75;32.00;;;;;20.14;59.43;99494.00;6082454;28;96665;-64
2021/09/30 05:03:55;;;;;;;;;39.00;30.00;;;;;20.19;59.02;99482.25;6050544;28;97327;-64
2021/09/30 05:07:00;;;;;;;;;37.50;33.00;;;;;20.22;58.82;99482.56;6067306;28;97056;-64
2021/09/30 05:10:05;;;;;;;;;35.00;30.40;;;;;20.17;59.37;99489.94;6067569;28;99364;-65
2021/09/30 05:13:37;;;;;;;;;37.00;32.00;;;;;20.10;59.36;99500.28;6056500;28;96785;-65
2021/09/30 05:16:41;;;;;;;;;41.40;32.00;;;;;20.09;59.65;99496.72;6050926;28;96758;-65
2021/09/30 05:20:22;;;;;;;;;42.60;33.00;;;;;20.16;59.54;99500.06;6044339;28;97051;-63
2021/09/30 05:23:27;;;;;;;;;42.25;33.25;;;;;20.07;59.86;99498.09;6066555;28;97553;-64
2021/09/30 05:26:30;;;;;;;;;39.40;33.00;;;;;20.15;59.42;99508.53;6064220;28;97737;-63
2021/09/30 05:29:34;;;;;;;;;39.00;32.00;;;;;20.13;59.31;99503.34;6082977;28;97500;-63
2021/09/30 05:32:49;;;;;;;;;35.50;32.00;;;;;20.08;59.54;99521.66;6065579;28;99479;-65
2021/09/30 05:35:55;;;;;;;;;38.40;32.00;;;;;20.12;59.69;99525.50;6051066;28;98386;-65
2021/09/30 05:39:01;;;;;;;;;41.60;33.00;;;;;20.16;59.40;99515.66;6052211;28;96933;-63
2021/09/30 05:42:04;;;;;;;;;40.00;33.00;;;;;20.13;60.03;99538.94;6049521;28;96848;-62
2021/09/30 05:45:11;;;;;;;;;41.40;34.60;;;;;20.14;59.33;99545.19;6046111;28;96792;-63
2021/09/30 05:48:16;;;;;;;;;37.40;33.00;;;;;20.15;59.52;99547.69;6041211;28;96771;-63
2021/09/30 05:51:19;;;;;;;;;39.40;32.80;;;;;20.14;59.27;99550.69;6081767;28;97606;-64
2021/09/30 05:54:50;;;;;;;;;42.40;33.00;;;;;20.17;59.40;99555.63;6062449;28;96627;-62
2021/09/30 05:58:00;;;;;;;;;41.60;35.00;;;;;20.08;59.44;99557.25;6059832;28;97445;-64
2021/09/30 06:01:10;;;;;;;;;44.40;34.80;;;;;20.15;59.23;99555.88;6066999;28;96624;-63
2021/09/30 06:11:21;;;;;;;;;41.60;34.00;;;;;20.15;59.37;99571.50;6079476;28;97648;-65
2021/09/30 06:14:26;;;;;;;;;43.80;35.00;;;;;20.18;59.11;99573.72;6052036;28;96832;-62
2021/09/30 06:17:31;;;;;;;;;43.80;33.40;;;;;20.17;59.40;99575.63;6051674;28;97397;-63
2021/09/30 06:20:37;;;;;;;;;45.00;35.75;;;;;20.13;59.36;99590.13;6081408;28;97215;-63
2021/09/30 06:23:40;;;;;;;;;45.60;35.40;;;;;20.09;59.53;99598.00;6053317;28;97078;-62
2021/09/30 06:26:47;;;;;;;;;43.40;35.00;;;;;20.01;59.31;99598.53;6049600;28;96604;-63
2021/09/30 06:29:53;;;;;;;;;44.50;35.00;;;;;20.06;59.66;99590.34;6048915;28;96679;-63
2021/09/30 06:32:57;;;;;;;;;45.80;37.00;;;;;20.12;59.59;99596.69;6038210;28;97096;-63
2021/09/30 06:36:20;;;;;;;;;47.40;37.40;;;;;20.14;58.78;99605.44;6055842;28;96643;-64
2021/09/30 06:39:24;;;;;;;;;43.00;35.00;;;;;20.15;59.08;99613.38;6064052;28;96696;-63
2021/09/30 06:42:28;;;;;;;;;49.25;35.00;;;;;20.23;58.63;99620.28;6072417;28;97732;-64
2021/09/30 06:45:49;;;;;;;;;45.00;35.00;;;;;20.15;58.57;99627.06;6067132;28;96598;-64
2021/09/30 06:49:16;;;;;;;;;38.60;33.00;;;;;20.07;58.70;99634.97;6062925;28;97484;-64
2021/09/30 06:52:59;;;;;;;;;45.00;34.60;;;;;20.15;57.85;99634.47;6016658;28;97725;-62
2021/09/30 06:56:22;;;;;;;;;39.40;33.40;;;;;20.18;56.82;99640.22;6000690;28;96704;-62
2021/09/30 07:00:02;;;;;;;;;43.40;33.80;;;;;20.18;56.65;99647.63;6067333;28;97498;-64
2021/09/30 07:03:27;;;;;;;;;37.40;32.40;;;;;20.14;56.64;99655.53;6058677;28;96843;-65
2021/09/30 07:06:54;;;;;;;;;43.80;33.40;;;;;20.12;56.40;99662.38;6054910;28;97045;-64
2021/09/30 07:09:57;;;;;;;;;40.00;31.25;;;;;20.09;55.90;99660.16;6056989;28;97190;-65
2021/09/30 07:13:00;;;;;;;;;36.20;31.80;;;;;19.98;56.31;99661.19;6078184;28;98163;-64
2021/09/30 07:16:05;;;;;;;;;39.75;32.00;;;;;19.93;56.39;99662.00;6066258;28;96760;-64
2021/09/30 07:19:09;;;;;;;;;42.00;33.00;;;;;19.92;56.07;99673.19;6067218;28;97138;-64
2021/09/30 07:22:12;;;;;;;;;40.40;32.40;;;;;19.85;56.27;99666.03;6074804;28;97402;-61
2021/09/30 07:25:16;;;;;;;;;35.50;32.00;;;;;19.86;56.38;99675.06;6066431;28;96461;-65
2021/09/30 07:28:20;;;;;;;;;36.25;32.00;;;;;19.87;56.26;99677.56;6064035;28;97050;-63
2021/09/30 07:31:25;;;;;;;;;38.33;31.00;;;;;19.97;56.21;99679.53;6067435;28;97634;-61
2021/09/30 07:34:29;;;;;;;;;31.00;28.00;;;;;20.03;55.60;99680.41;6065235;28;97531;-65
2021/09/30 07:37:32;;;;;;;;;36.80;30.00;;;;;20.12;55.50;99695.22;6065512;28;97366;-61
2021/09/30 07:40:36;;;;;;;;;29.40;26.60;;;;;20.10;54.18;99687.28;6065384;28;97546;-62
2021/09/30 07:43:43;;;;;;;;;28.67;25.00;;;;;20.20;53.66;99702.94;6069682;28;97268;-63
2021/09/30 07:46:48;;;;;;;;;29.00;25.00;;;;;20.16;53.59;99682.66;6065437;28;96939;-63
2021/09/30 07:49:52;;;;;;;;;29.00;24.00;;;;;20.24;53.87;99707.63;6067213;28;97599;-63
2021/09/30 07:52:57;;;;;;;;;27.80;25.20;;;;;20.28;53.66;99711.47;6048367;28;97273;-60
2021/09/30 07:56:00;;;;;;;;;24.00;23.00;;;;;20.22;52.55;99711.72;6060976;28;96859;-60
2021/09/30 07:59:04;;;;;;;;;26.00;23.40;;;;;20.16;52.28;99708.13;6069301;28;97188;-63
2021/09/30 08:02:09;;;;;;;;;26.60;23.60;;;;;20.16;52.75;99716.34;6065366;28;96522;-62
2021/09/30 08:05:12;;;;;;;;;27.60;24.60;;;;;20.12;52.47;99719.88;6065425;28;97518;-61
2021/09/30 08:08:16;;;;;;;;;25.40;21.00;;;;;20.06;52.81;99727.22;6049117;28;96631;-63
2021/09/30 08:11:19;;;;;;;;;23.40;21.00;;;;;20.01;52.35;99740.88;6068297;28;98204;-63
2021/09/30 08:14:22;;;;;;;;;19.60;18.60;;;;;19.84;52.08;99745.69;6067328;28;97614;-62
2021/09/30 08:17:27;;;;;;;;;18.00;15.00;;;;;19.93;52.94;99746.00;6069910;28;97495;-65
2021/09/30 08:20:30;;;;;;;;;16.40;16.00;;;;;19.95;52.27;99746.56;6062225;28;97222;-64
2021/09/30 08:23:33;;;;;;;;;18.00;15.20;;;;;19.97;51.38;99749.88;6069359;28;97504;-61
2021/09/30 08:26:37;;;;;;;;;19.60;18.60;;;;;19.93;51.73;99741.38;6064712;28;97616;-61
2021/09/30 08:29:40;;;;;;;;;21.00;19.40;;;;;19.93;52.10;99746.00;6081416;28;97542;-63
2021/09/30 08:32:48;;;;;;;;;20.00;18.00;;;;;19.88;52.44;99749.53;6081827;28;98051;-63
2021/09/30 08:35:52;;;;;;;;;18.00;17.00;;;;;19.87;52.60;99756.91;6050806;28;98466;-64
2021/09/30 08:38:56;;;;;;;;;19.00;17.00;;;;;19.88;52.40;99763.22;6073665;28;97428;-64
2021/09/30 08:41:59;;;;;;;;;17.50;16.50;;;;;19.88;52.20;99766.78;6076560;28;96646;-65
2021/09/30 08:45:02;;;;;;;;;17.75;15.00;;;;;19.83;51.98;99772.22;6069135;28;96539;-62
2021/09/30 08:48:09;;;;;;;;;16.00;15.00;;;;;19.80;52.11;99767.25;6069812;28;97282;-61
2021/09/30 08:51:14;;;;;;;;;15.80;13.80;;;;;19.84;51.93;99765.63;6069575;28;97087;-62
2021/09/30 08:54:17;;;;;;;;;16.00;14.80;;;;;19.86;51.51;99768.13;6069805;28;97499;-63
2021/09/30 08:57:20;;;;;;;;;16.80;15.00;;;;;19.84;51.34;99778.50;6069503;28;97065;-61
2021/09/30 09:00:24;;;;;;;;;18.00;15.00;;;;;19.83;51.24;99776.84;6054404;28;96696;-62
2021/09/30 09:03:38;;;;;;;;;19.40;15.40;;;;;19.87;51.48;99787.03;6084040;28;96501;-61
2021/09/30 09:06:47;;;;;;;;;16.50;16.00;;;;;19.93;51.88;99789.81;6056141;28;97721;-61
2021/09/30 09:09:51;;;;;;;;;17.00;16.00;;;;;19.94;52.61;99791.47;6053905;28;98552;-63
2021/09/30 09:13:03;;;;;;;;;19.00;17.20;;;;;20.03;52.47;99798.94;6082706;28;97019;-63
2021/09/30 09:16:09;;;;;;;;;17.60;16.00;;;;;20.10;52.06;99799.53;6051361;28;97615;-63
2021/09/30 09:19:28;;;;;;;;;19.80;17.80;;;;;20.08;51.90;99804.44;6077039;28;97407;-63
2021/09/30 09:22:33;;;;;;;;;20.00;18.00;;;;;20.12;52.44;99802.84;6066888;28;96997;-64
2021/09/30 09:25:38;;;;;;;;;22.00;21.00;;;;;20.13;52.41;99807.22;6061779;28;97852;-65
2021/09/30 09:29:02;;;;;;;;;22.00;21.40;;;;;20.15;52.27;99806.94;6069008;28;96970;-64
2021/09/30 09:32:06;;;;;;;;;25.50;22.00;;;;;20.24;52.15;99813.59;6035671;28;98238;-62
2021/09/30 09:35:13;;;;;;;;;22.20;20.60;;;;;20.15;51.87;99809.69;6053366;28;97742;-61
2021/09/30 09:38:16;;;;;;;;;21.75;20.00;;;;;20.25;52.02;99817.97;6077656;28;96579;-64
2021/09/30 09:41:25;;;;;;;;;21.00;19.00;;;;;20.21;51.94;99817.69;6066503;28;97722;-64
2021/09/30 09:44:28;;;;;;;;;22.00;20.00;;;;;20.23;51.62;99812.75;6068431;28;97502;-63
2021/09/30 09:47:34;;;;;;;;;21.25;19.00;;;;;20.14;51.11;99822.53;6080845;28;97098;-64
2021/09/30 09:50:59;;;;;;;;;19.60;17.60;;;;;20.10;51.47;99821.41;6068298;28;97737;-65
2021/09/30 09:54:07;;;;;;;;;17.40;15.40;;;;;20.03;51.33;99823.56;6068656;28;97436;-63
2021/09/30 09:57:29;;;;;;;;;18.75;15.00;;;;;19.94;50.52;99822.38;6068243;28;96516;-63
2021/09/30 10:00:35;;;;;;;;;17.00;15.00;;;;;19.84;49.99;99831.31;6068913;28;96871;-63
2021/09/30 10:03:59;;;;;;;;;18.00;15.80;;;;;19.69;49.89;99833.09;6068250;28;96516;-63
2021/09/30 10:07:06;;;;;;;;;17.40;15.80;;;;;19.73;50.71;99828.75;6069601;28;96648;-63
2021/09/30 10:10:11;;;;;;;;;16.00;14.50;;;;;19.71;50.71;99842.69;6067878;28;96800;-63
2021/09/30 10:13:16;;;;;;;;;17.00;15.00;;;;;19.59;50.72;99843.94;6067395;28;97547;-62
2021/09/30 10:16:25;;;;;;;;;13.80;12.00;;;;;19.58;50.91;99845.84;6070450;28;97015;-64
2021/09/30 10:19:28;;;;;;;;;16.00;14.00;;;;;19.63;51.11;99848.63;6068024;28;96466;-63
2021/09/30 10:22:33;;;;;;;;;14.75;14.00;;;;;19.61;50.73;99847.22;6068204;28;96458;-62
2021/09/30 10:25:39;;;;;;;;;14.40;13.40;;;;;19.63;50.36;99853.28;6069871;28;97712;-61
2021/09/30 10:28:45;;;;;;;;;15.00;13.00;;;;;19.57;50.00;99855.13;6052082;28;98003;-62
2021/09/30 10:31:57;;;;;;;;;13.80;12.20;;;;;19.67;49.28;99848.94;6068465;28;96458;-62
2021/09/30 10:35:02;;;;;;;;;13.00;12.00;;;;;19.67;49.43;99849.75;6067688;28;97528;-64
2021/09/30 10:38:22;;;;;;;;;14.00;13.00;;;;;19.75;49.36;99853.94;6042295;28;98128;-62
2021/09/30 10:41:36;;;;;;;;;13.00;12.40;;;;;19.80;49.15;99843.88;6032496;28;96876;-59
2021/09/30 10:44:39;;;;;;;;;13.60;12.00;;;;;19.69;48.98;99853.06;6043700;28;97521;-60
2021/09/30 10:47:43;;;;;;;;;16.20;14.60;;;;;19.69;48.74;99844.03;6043539;28;96644;-63
2021/09/30 10:50:55;;;;;;;;;12.00;12.00;;;;;19.70;49.09;99848.41;6043773;28;96429;-64
2021/09/30 10:54:00;;;;;;;;;12.00;9.00;;;;;19.71;48.35;99844.59;6036715;28;96899;-63
2021/09/30 10:57:27;;;;;;;;;14.00;13.00;;;;;19.70;49.17;99853.88;6043079;28;97023;-61
2021/09/30 11:00:50;;;;;;;;;13.60;13.00;;;;;19.63;49.09;99856.84;6033949;28;97080;-64
2021/09/30 11:03:58;;;;;;;;;15.40;12.00;;;;;19.61;49.53;99853.50;6042719;28;96902;-63
2021/09/30 11:07:15;;;;;;;;;13.60;12.00;;;;;19.63;49.27;99859.56;6041375;28;97318;-66
2021/09/30 11:10:25;;;;;;;;;16.20;14.20;;;;;19.63;48.72;99854.09;6041311;28;97553;-62
2021/09/30 11:13:30;;;;;;;;;13.80;13.80;;;;;19.62;48.60;99852.44;6041453;28;96547;-64
2021/09/30 11:16:37;;;;;;;;;14.40;12.40;;;;;19.67;48.36;99852.50;6041021;28;97617;-64
2021/09/30 11:19:42;;;;;;;;;12.50;11.50;;;;;19.63;48.92;99853.28;6042937;28;96842;-63
2021/09/30 11:22:46;;;;;;;;;14.00;13.00;;;;;19.64;48.74;99858.50;6040975;28;97387;-64
2021/09/30 11:26:07;;;;;;;;;16.60;14.60;;;;;19.60;48.92;99860.06;6040735;28;97940;-61
2021/09/30 11:29:28;;;;;;;;;15.40;14.40;;;;;19.48;48.77;99862.13;6028530;28;97238;-64
2021/09/30 11:32:31;;;;;;;;;12.20;11.00;;;;;19.44;49.23;99864.56;6043647;28;97514;-66
2021/09/30 11:35:35;;;;;;;;;14.80;12.80;;;;;19.40;49.58;99862.56;6013103;28;99192;-62
2021/09/30 11:38:39;;;;;;;;;10.00;10.00;;;;;19.31;49.87;99867.63;6038387;28;100614;-64
2021/09/30 11:41:47;;;;;;;;;12.00;12.00;;;;;19.25;49.92;99855.00;6062149;28;97771;-63
2021/09/30 11:44:58;;;;;;;;;11.20;11.00;;;;;19.25;49.68;99862.38;6064454;28;97050;-61
2021/09/30 11:48:04;;;;;;;;;11.80;11.00;;;;;19.17;49.83;99863.63;6066602;28;97642;-61
2021/09/30 11:51:07;;;;;;;;;11.00;10.00;;;;;19.12;49.99;99862.72;6040778;28;97229;-63
2021/09/30 11:54:12;;;;;;;;;11.40;10.00;;;;;19.13;50.01;99867.13;6037563;28;97790;-63
2021/09/30 11:57:24;;;;;;;;;12.00;12.00;;;;;19.00;49.97;99866.44;6067793;28;97539;-64
2021/09/30 12:00:28;;;;;;;;;10.00;9.00;;;;;18.98;50.45;99865.00;6050208;28;99695;-63
2021/09/30 12:03:51;;;;;;;;;11.00;11.00;;;;;18.91;51.15;99869.84;6067551;28;96539;-64
2021/09/30 12:06:55;;;;;;;;;10.60;10.60;;;;;18.93;50.48;99865.78;6062243;28;97047;-64
2021/09/30 12:10:00;;;;;;;;;11.20;10.20;;;;;18.94;51.04;99864.69;6078686;28;96758;-63
2021/09/30 12:13:19;;;;;;;;;12.00;11.00;;;;;19.02;51.33;99868.88;6069879;28;96654;-64
2021/09/30 12:16:23;;;;;;;;;11.67;11.00;;;;;19.08;51.32;99876.09;6068753;28;97883;-60
2021/09/30 12:19:30;;;;;;;;;12.40;11.40;;;;;19.07;51.25;99871.69;6070097;28;97490;-62
2021/09/30 12:22:37;;;;;;;;;14.75;13.00;;;;;19.09;51.31;99876.91;6051623;28;97743;-62
2021/09/30 12:25:41;;;;;;;;;11.00;10.00;;;;;19.04;50.85;99873.03;6066209;28;96877;-64
2021/09/30 12:28:46;;;;;;;;;12.60;11.60;;;;;19.09;51.12;99880.47;6068512;28;97418;-63
2021/09/30 12:32:04;;;;;;;;;10.60;9.60;;;;;18.96;50.53;99872.66;6068820;28;97379;-61
2021/09/30 12:35:10;;;;;;;;;8.60;8.40;;;;;19.06;51.20;99883.69;6068911;28;97543;-63
2021/09/30 12:38:16;;;;;;;;;11.50;10.50;;;;;19.07;51.40;99874.44;6070021;28;97291;-63
2021/09/30 12:41:21;;;;;;;;;11.00;9.00;;;;;19.09;51.18;99876.91;6067991;28;97536;-64
2021/09/30 12:44:33;;;;;;;;;11.25;10.00;;;;;19.13;50.93;99872.59;6065853;28;96791;-60
2021/09/30 12:47:40;;;;;;;;;11.40;11.00;;;;;19.18;51.44;99872.66;6067404;28;96735;-64
2021/09/30 12:50:47;;;;;;;;;10.00;10.00;;;;;19.21;50.92;99881.16;6079566;28;97686;-61
2021/09/30 12:53:52;;;;;;;;;11.00;11.00;;;;;19.24;50.32;99880.69;6065991;28;97564;-61
2021/09/30 12:57:09;;;;;;;;;9.00;9.00;;;;;19.28;51.38;99878.25;6067592;28;97465;-63
2021/09/30 13:00:17;;;;;;;;;9.60;8.60;;;;;19.27;50.88;99874.69;6069167;28;96474;-64
2021/09/30 13:03:20;;;;;;;;;10.40;10.00;;;;;19.29;51.08;99872.53;6067815;28;97309;-61
2021/09/30 13:06:25;;;;;;;;;11.00;10.00;;;;;19.27;50.80;99869.22;6066314;28;97554;-63
2021/09/30 13:09:30;;;;;;;;;8.00;8.00;;;;;19.30;49.97;99865.97;6068749;28;97271;-61
2021/09/30 13:12:33;;;;;;;;;9.00;8.00;;;;;19.28;50.06;99867.31;6036791;28;97703;-62
2021/09/30 13:15:41;;;;;;;;;10.00;10.00;;;;;19.28;50.37;99876.34;6066620;28;97471;-63
2021/09/30 13:18:48;;;;;;;;;9.20;8.00;;;;;19.36;50.44;99875.91;6068615;28;97031;-63
2021/09/30 13:22:01;;;;;;;;;9.40;8.00;;;;;19.39;50.32;99863.63;6035012;28;98019;-61
2021/09/30 13:25:07;;;;;;;;;10.75;8.75;;;;;19.43;50.21;99862.03;6050714;28;96519;-63
2021/09/30 13:28:10;;;;;;;;;9.40;8.60;;;;;19.44;50.04;99866.47;6067387;28;97534;-60
2021/09/30 13:31:15;;;;;;;;;7.60;7.00;;;;;19.44;49.03;99864.56;6067518;28;97194;-61
2021/09/30 13:34:19;;;;;;;;;8.25;7.25;;;;;19.28;48.91;99838.06;6066197;28;97238;-62
2021/09/30 13:37:23;;;;;;;;;8.00;7.00;;;;;19.45;48.46;99868.09;6065792;28;98080;-62
2021/09/30 13:40:27;;;;;;;;;9.60;8.00;;;;;19.45;48.46;99857.97;6067058;28;96743;-60
2021/09/30 13:43:30;;;;;;;;;7.00;6.00;;;;;19.47;48.84;99865.94;6064388;28;97506;-62
2021/09/30 13:46:36;;;;;;;;;9.00;8.00;;;;;19.48;48.90;99861.31;6068054;28;96455;-60
2021/09/30 13:49:39;;;;;;;;;8.00;8.00;;;;;19.54;48.50;99860.28;6071224;28;96744;-62
2021/09/30 13:52:44;;;;;;;;;10.25;9.25;;;;;19.56;48.40;99864.41;6067321;28;97429;-60
2021/09/30 13:55:47;;;;;;;;;10.60;10.00;;;;;19.60;48.93;99859.22;6063234;28;96577;-61
2021/09/30 13:58:51;;;;;;;;;12.00;10.60;;;;;19.60;48.88;99861.97;6072107;28;97346;-61
2021/09/30 14:02:16;;;;;;;;;8.80;8.80;;;;;19.61;49.46;99867.19;6068101;28;97578;-60
2021/09/30 14:05:19;;;;;;;;;11.00;10.00;;;;;19.61;49.22;99858.97;6068259;28;97159;-60
2021/09/30 14:08:24;;;;;;;;;10.20;10.00;;;;;19.68;48.93;99859.63;6070256;28;97141;-60
2021/09/30 14:11:27;;;;;;;;;9.60;8.00;;;;;19.68;49.37;99867.00;6065797;28;97271;-62
2021/09/30 14:14:30;;;;;;;;;11.80;10.00;;;;;19.66;49.24;99858.22;6066627;28;96540;-60
2021/09/30 14:17:38;;;;;;;;;10.00;8.80;;;;;19.64;49.75;99858.50;6068046;28;97019;-62
2021/09/30 14:20:41;;;;;;;;;14.40;13.40;;;;;19.59;48.48;99858.44;6061929;28;96754;-60
2021/09/30 14:23:45;;;;;;;;;11.80;10.60;;;;;19.56;48.63;99856.19;6050097;28;97610;-61
2021/09/30 14:26:49;;;;;;;;;11.40;11.00;;;;;19.50;48.55;99849.00;6066843;28;97583;-61
2021/09/30 14:29:52;;;;;;;;;11.00;10.00;;;;;19.56;48.31;99842.50;6080392;28;97432;-63
2021/09/30 14:32:57;;;;;;;;;11.00;11.00;;;;;19.51;48.61;99842.47;6066284;28;96874;-61
2021/09/30 14:36:00;;;;;;;;;9.60;9.00;;;;;19.58;48.96;99843.09;6057303;28;96930;-63
2021/09/30 14:39:06;;;;;;;;;9.80;9.00;;;;;19.51;48.72;99828.78;6064319;28;97515;-61
2021/09/30 14:42:10;;;;;;;;;9.00;8.80;;;;;19.54;49.05;99841.97;6067598;28;97421;-61
2021/09/30 14:45:13;;;;;;;;;12.00;11.00;;;;;19.49;50.50;99836.44;6066965;28;97478;-64
2021/09/30 14:48:18;;;;;;;;;9.00;9.00;;;;;19.44;50.40;99834.47;6051037;28;96912;-61
2021/09/30 14:51:22;;;;;;;;;10.00;10.00;;;;;19.43;50.52;99840.16;6070436;28;98220;-62
2021/09/30 14:54:25;;;;;;;;;11.00;10.00;;;;;19.45;50.13;99829.81;6066006;28;96489;-62
2021/09/30 14:57:29;;;;;;;;;8.00;7.00;;;;;19.35;50.35;99832.41;6084587;28;97583;-63
2021/09/30 15:00:32;;;;;;;;;9.00;8.40;;;;;19.28;50.40;99843.53;6067570;28;97586;-62
2021/09/30 15:03:37;;;;;;;;;10.00;9.00;;;;;19.23;50.30;99834.44;6074335;28;97312;-63
2021/09/30 15:06:40;;;;;;;;;8.00;7.33;;;;;19.27;50.46;99841.88;6053068;28;97410;-62
2021/09/30 15:09:43;;;;;;;;;9.60;8.60;;;;;19.26;50.14;99840.22;6067566;28;97514;-63
2021/09/30 15:12:49;;;;;;;;;10.50;9.50;;;;;19.27;50.28;99849.25;6066449;28;96875;-63
2021/09/30 15:15:53;;;;;;;;;10.00;10.00;;;;;19.30;50.20;99846.03;6067003;28;96529;-62
2021/09/30 15:19:03;;;;;;;;;9.40;9.40;;;;;19.27;50.26;99835.59;6074337;28;96628;-61
2021/09/30 15:22:06;;;;;;;;;10.00;10.00;;;;;19.20;50.07;99830.34;6073217;28;97581;-62
2021/09/30 15:25:11;;;;;;;;;12.00;11.00;;;;;19.19;50.55;99846.97;6066327;28;97268;-63
2021/09/30 15:28:17;;;;;;;;;12.00;11.00;;;;;19.11;51.11;99848.22;6065963;28;96707;-61
2021/09/30 15:31:21;;;;;;;;;11.00;9.40;;;;;19.14;50.94;99849.66;6060547;28;97477;-63
2021/09/30 15:34:27;;;;;;;;;11.00;11.00;;;;;19.11;50.89;99850.97;6068074;28;97399;-63
2021/09/30 15:37:30;;;;;;;;;11.20;10.80;;;;;19.10;50.94;99848.50;6066057;28;97475;-63
2021/09/30 15:40:34;;;;;;;;;15.00;13.00;;;;;19.07;50.68;99863.50;6047745;28;99523;-62
2021/09/30 15:43:37;;;;;;;;;12.00;11.40;;;;;19.04;51.34;99859.38;6065769;28;96886;-60
2021/09/30 15:46:40;;;;;;;;;11.40;11.00;;;;;18.98;51.42;99857.66;6045516;28;97598;-62
2021/09/30 15:49:45;;;;;;;;;14.40;13.40;;;;;19.00;51.25;99860.13;6073508;28;97133;-63
2021/09/30 15:52:48;;;;;;;;;14.00;12.00;;;;;18.98;51.54;99859.56;6066921;28;97457;-61
2021/09/30 15:55:52;;;;;;;;;13.00;11.40;;;;;18.87;50.81;99846.81;6080596;28;96558;-61
2021/09/30 15:58:55;;;;;;;;;11.00;9.60;;;;;18.91;51.04;99858.94;6062945;28;97730;-62
2021/09/30 16:01:59;;;;;;;;;10.00;9.00;;;;;18.86;50.55;99856.91;6093248;28;96895;-61
2021/09/30 16:05:04;;;;;;;;;10.50;10.00;;;;;18.87;50.68;99866.78;6070298;28;96581;-63
2021/09/30 16:08:08;;;;;;;;;11.40;9.40;;;;;18.87;51.07;99863.22;6066628;28;96815;-62
2021/09/30 16:11:13;;;;;;;;;10.00;10.00;;;;;18.85;50.75;99862.66;6048429;28;97033;-63
2021/09/30 16:14:16;;;;;;;;;11.80;11.80;;;;;18.87;50.69;99871.41;6065574;28;96574;-60
2021/09/30 16:17:20;;;;;;;;;10.20;10.00;;;;;18.82;51.03;99874.91;6064688;28;97214;-61
2021/09/30 16:20:24;;;;;;;;;10.25;9.50;;;;;18.83;50.66;99871.09;6063464;28;97583;-62
2021/09/30 16:23:27;;;;;;;;;12.00;11.00;;;;;18.83;51.09;99873.81;6066786;28;96590;-62
2021/09/30 16:26:31;;;;;;;;;12.00;11.00;;;;;18.85;50.66;99874.41;6063144;28;97030;-62
2021/09/30 16:29:35;;;;;;;;;12.00;11.00;;;;;18.87;51.05;99877.72;6061336;28;97566;-62
2021/09/30 16:32:38;;;;;;;;;10.00;9.00;;;;;18.87;50.50;99879.59;6066995;28;98091;-61
2021/09/30 16:35:43;;;;;;;;;11.20;10.20;;;;;18.85;50.89;99885.34;6063119;28;97376;-61
2021/09/30 16:38:49;;;;;;;;;12.40;11.40;;;;;18.77;50.70;99890.38;6049854;28;97013;-62
2021/09/30 16:41:52;;;;;;;;;11.00;11.00;;;;;18.76;50.46;99886.84;6068189;28;96595;-63
2021/09/30 16:44:55;;;;;;;;;10.00;10.00;;;;;18.73;50.70;99890.06;6068577;28;96485;-63
2021/09/30 16:47:58;;;;;;;;;11.00;10.00;;;;;18.73;50.50;99897.44;6066983;28;97234;-63
2021/09/30 16:51:03;;;;;;;;;12.40;11.00;;;;;18.63;50.35;99884.44;6062232;28;97581;-62
2021/09/30 16:54:06;;;;;;;;;11.20;11.00;;;;;18.69;50.60;99897.13;6066160;28;98296;-62
2021/09/30 16:57:09;;;;;;;;;13.00;11.00;;;;;18.70;50.73;99900.69;6071052;28;97484;-64
2021/09/30 17:00:15;;;;;;;;;10.60;10.00;;;;;18.66;50.62;99899.53;6062830;28;96748;-65
2021/09/30 17:03:19;;;;;;;;;11.50;11.00;;;;;18.67;50.81;99901.19;6065601;28;97015;-62
2021/09/30 17:06:24;;;;;;;;;10.75;10.00;;;;;18.67;50.94;99896.53;6058457;28;97583;-62
2021/09/30 17:09:27;;;;;;;;;12.00;11.00;;;;;18.66;50.27;99905.00;6045325;28;98446;-62
2021/09/30 17:12:30;;;;;;;;;11.40;10.40;;;;;18.66;50.78;99902.25;6073355;28;97156;-62
2021/09/30 17:15:36;;;;;;;;;11.20;11.00;;;;;18.68;50.87;99900.09;6065540;28;97504;-65
2021/09/30 17:18:39;;;;;;;;;11.80;10.80;;;;;18.69;50.63;99901.75;6068030;28;96680;-65
2021/09/30 17:21:45;;;;;;;;;13.00;11.00;;;;;18.65;51.03;99901.44;6063185;28;98150;-63
2021/09/30 17:24:54;;;;;;;;;12.00;11.50;;;;;18.62;51.23;99904.63;6065509;28;96915;-63
2021/09/30 17:27:58;;;;;;;;;10.50;9.50;;;;;18.60;51.31;99904.09;6079141;28;97129;-64
2021/09/30 17:31:01;;;;;;;;;11.50;9.50;;;;;18.60;51.77;99906.81;6048569;28;97698;-64
2021/09/30 17:34:08;;;;;;;;;12.60;12.00;;;;;18.55;51.51;99904.00;6035215;28;98633;-63
2021/09/30 17:37:12;;;;;;;;;14.00;12.20;;;;;18.53;51.52;99900.66;6063927;28;96695;-63
2021/09/30 17:40:16;;;;;;;;;12.00;11.60;;;;;18.53;51.53;99897.91;6066075;28;96823;-63
2021/09/30 17:43:19;;;;;;;;;12.20;11.20;;;;;18.54;51.10;99899.59;6067041;28;96781;-62
2021/09/30 17:46:23;;;;;;;;;12.00;12.00;;;;;18.54;50.70;99894.97;6066759;28;96777;-64
2021/09/30 17:49:26;;;;;;;;;14.00;12.00;;;;;18.55;50.99;99901.28;6049284;28;96884;-62
2021/09/30 17:52:30;;;;;;;;;13.50;11.00;;;;;18.51;51.62;99913.75;6063490;28;98495;-62
2021/09/30 17:55:33;;;;;;;;;15.25;13.00;;;;;18.50;51.41;99912.06;6064157;28;96711;-63
2021/09/30 17:58:37;;;;;;;;;16.50;15.00;;;;;18.40;51.60;99896.34;6061053;28;98490;-62
2021/09/30 18:01:41;;;;;;;;;14.80;13.80;;;;;18.41;51.62;99906.22;6057420;28;98552;-62
2021/09/30 18:04:48;;;;;;;;;14.80;13.80;;;;;18.41;51.45;99913.56;6060132;28;97593;-63
2021/09/30 18:07:52;;;;;;;;;13.00;12.60;;;;;18.39;51.79;99912.97;6058057;28;96892;-62
2021/09/30 18:10:59;;;;;;;;;13.00;12.00;;;;;18.38;51.56;99908.59;6060569;28;97571;-64
2021/09/30 18:14:03;;;;;;;;;14.25;13.00;;;;;18.35;51.87;99909.91;6064189;28;97452;-62
2021/09/30 18:17:06;;;;;;;;;12.00;11.40;;;;;18.33;52.48;99908.50;6064881;28;96631;-62
2021/09/30 18:20:13;;;;;;;;;14.60;13.60;;;;;18.29;52.12;99904.63;6066231;28;97010;-64
2021/09/30 18:23:25;;;;;;;;;13.60;12.60;;;;;18.29;52.17;99905.44;6063604;28;96611;-63
2021/09/30 18:26:28;;;;;;;;;17.00;14.25;;;;;18.28;52.55;99900.22;6066908;28;97991;-63
2021/09/30 18:29:32;;;;;;;;;12.75;12.00;;;;;18.29;52.53;99919.09;6065355;28;96615;-63
2021/09/30 18:32:35;;;;;;;;;13.60;12.00;;;;;18.14;52.81;99889.63;6048667;28;97054;-63
2021/09/30 18:35:38;;;;;;;;;16.60;14.60;;;;;18.28;52.54;99922.88;6081448;28;97429;-63
2021/09/30 18:38:44;;;;;;;;;16.40;15.00;;;;;18.29;52.57;99919.09;6049242;28;99848;-64
2021/09/30 18:41:48;;;;;;;;;13.00;12.00;;;;;18.26;52.77;99914.13;6048736;28;96653;-62
2021/09/30 18:44:53;;;;;;;;;25.00;22.40;;;;;18.22;52.80;99926.63;6066065;28;97163;-63
2021/09/30 18:47:56;;;;;;;;;17.00;14.50;;;;;18.19;52.58;99930.66;6066829;28;96463;-63
2021/09/30 18:50:59;;;;;;;;;16.80;14.20;;;;;18.14;52.46;99930.56;6066468;28;97518;-64
2021/09/30 18:54:05;;;;;;;;;17.40;16.00;;;;;18.06;52.60;99925.53;6064794;28;97080;-64
2021/09/30 18:57:09;;;;;;;;;17.60;17.00;;;;;18.13;52.29;99939.03;6058262;28;96996;-64
2021/09/30 19:00:15;;;;;;;;;18.00;16.00;;;;;18.13;51.96;99939.81;6057562;28;98224;-63
2021/09/30 19:03:18;;;;;;;;;20.40;18.40;;;;;18.13;52.12;99942.56;6064075;28;97730;-62